createdAt,value
2022-12-01T00:01:15.872Z,45.08
2022-12-01T00:03:43.142Z,47.15
2022-12-01T00:06:19.174Z,47.55
2022-12-01T00:09:06.240Z,48.05
2022-12-01T00:11:34.742Z,49.17
2022-12-01T00:14:02.457Z,47.83
2022-12-01T00:16:30.288Z,47.65
2022-12-01T00:18:57.607Z,48.25
2022-12-01T00:21:25.524Z,49.08
2022-12-01T00:23:55.090Z,49.22
2022-12-01T00:26:23.248Z,47.65
2022-12-01T00:28:58.285Z,47.45
2022-12-01T00:31:26.300Z,48.25
2022-12-01T00:33:53.782Z,46.38
2022-12-01T00:36:21.187Z,46.15
2022-12-01T00:38:51.072Z,46.70
2022-12-01T00:41:18.503Z,46.13
2022-12-01T00:43:45.762Z,47.47
2022-12-01T00:46:13.058Z,46.17
2022-12-01T00:48:40.315Z,47.33
2022-12-01T00:51:07.503Z,45.95
2022-12-01T00:53:34.787Z,47.33
2022-12-01T00:56:01.974Z,48.17
2022-12-01T00:58:29.279Z,44.20
2022-12-01T01:01:01.276Z,44.53
2022-12-01T01:03:29.590Z,47.38
2022-12-01T01:05:56.969Z,47.83
2022-12-01T01:08:24.203Z,43.65
2022-12-01T01:10:51.440Z,45.70
2022-12-01T01:13:18.679Z,46.90
2022-12-01T01:15:46.105Z,46.78
2022-12-01T01:18:13.859Z,45.55
2022-12-01T01:20:41.084Z,45.35
2022-12-01T01:23:08.421Z,45.10
2022-12-01T01:25:35.948Z,47.92
2022-12-01T01:28:03.139Z,47.13
2022-12-01T01:30:30.393Z,47.28
2022-12-01T01:32:57.665Z,48.55
2022-12-01T01:35:25.035Z,45.00
2022-12-01T01:37:52.438Z,46.42
2022-12-01T01:40:19.836Z,45.45
2022-12-01T01:42:47.236Z,45.10
2022-12-01T01:45:24.696Z,46.88
2022-12-01T01:47:53.589Z,45.25
2022-12-01T01:50:24.576Z,46.05
2022-12-01T01:53:01.648Z,47.03
2022-12-01T01:55:30.345Z,48.13
2022-12-01T01:57:57.685Z,46.10
2022-12-01T02:00:25.049Z,48.78
2022-12-01T02:02:52.542Z,47.88
2022-12-01T02:05:23.381Z,49.83
2022-12-01T02:07:55.587Z,46.65
2022-12-01T02:10:32.405Z,47.90
2022-12-01T02:13:20.967Z,47.20
2022-12-01T02:16:09.915Z,48.28
2022-12-01T02:18:46.347Z,49.83
2022-12-01T02:21:25.367Z,48.25
2022-12-01T02:24:32.126Z,47.13
2022-12-01T02:27:17.373Z,47.35
2022-12-01T02:30:07.691Z,46.80
2022-12-01T02:32:48.174Z,45.08
2022-12-01T02:35:43.671Z,47.00
2022-12-01T02:38:19.741Z,43.75
2022-12-01T02:41:16.788Z,46.15
2022-12-01T02:43:53.927Z,45.38
2022-12-01T02:46:36.539Z,47.25
2022-12-01T02:49:10.474Z,46.75
2022-12-01T02:51:38.937Z,46.33
2022-12-01T02:54:06.442Z,48.40
2022-12-01T02:56:33.715Z,47.72
2022-12-01T02:59:00.897Z,46.53
2022-12-01T03:01:50.555Z,44.08
2022-12-01T03:04:35.667Z,44.22
2022-12-01T03:07:33.111Z,45.05
2022-12-01T03:10:10.756Z,45.10
2022-12-01T03:12:56.349Z,43.25
2022-12-01T03:15:42.133Z,41.65
2022-12-01T03:18:37.800Z,42.55
2022-12-01T03:21:10.777Z,41.85
2022-12-01T03:23:41.712Z,42.40
2022-12-01T03:26:12.044Z,42.03
2022-12-01T03:28:43.918Z,42.28
2022-12-01T03:31:14.984Z,41.70
2022-12-01T03:33:50.637Z,41.42
2022-12-01T03:36:29.039Z,41.60
2022-12-01T03:39:02.719Z,41.97
2022-12-01T03:41:35.579Z,44.50
2022-12-01T03:44:21.010Z,40.90
2022-12-01T03:46:54.131Z,39.22
2022-12-01T03:49:23.912Z,42.78
2022-12-01T03:52:06.561Z,42.72
2022-12-01T03:54:45.309Z,43.40
2022-12-01T03:57:16.131Z,46.03
2022-12-01T03:59:44.778Z,43.25
2022-12-01T04:02:12.906Z,44.92
2022-12-01T04:04:40.207Z,45.45
2022-12-01T04:07:07.651Z,46.33
2022-12-01T04:09:34.857Z,49.03
2022-12-01T04:12:20.456Z,49.42
2022-12-01T04:14:47.699Z,45.72
2022-12-01T04:17:14.873Z,47.00
2022-12-01T04:19:42.086Z,45.33
2022-12-01T04:22:09.392Z,45.03
2022-12-01T04:24:36.631Z,44.25
2022-12-01T04:27:04.008Z,45.15
2022-12-01T04:29:31.216Z,45.20
2022-12-01T04:31:58.454Z,45.90
2022-12-01T04:34:25.689Z,45.63
2022-12-01T04:36:52.867Z,43.83
2022-12-01T04:39:20.089Z,44.35
2022-12-01T04:41:47.359Z,43.17
2022-12-01T04:44:15.049Z,44.22
2022-12-01T04:46:42.350Z,43.95
2022-12-01T04:49:09.889Z,44.00
2022-12-01T04:51:37.234Z,43.13
2022-12-01T04:54:05.810Z,47.17
2022-12-01T04:56:33.663Z,46.20
2022-12-01T04:59:01.119Z,46.15
2022-12-01T05:01:28.706Z,46.25
2022-12-01T05:03:55.911Z,44.60
2022-12-01T05:06:25.684Z,44.83
2022-12-01T05:08:56.804Z,45.47
2022-12-01T05:11:24.607Z,44.45
2022-12-01T05:13:55.194Z,42.67
2022-12-01T05:16:25.337Z,46.20
2022-12-01T05:19:13.810Z,43.70
2022-12-01T05:21:41.605Z,47.10
2022-12-01T05:24:09.692Z,45.15
2022-12-01T05:26:37.257Z,44.60
2022-12-01T05:29:04.699Z,43.35
2022-12-01T05:31:32.304Z,44.90
2022-12-01T05:33:59.773Z,46.42
2022-12-01T05:36:26.975Z,47.03
2022-12-01T05:38:54.719Z,48.72
2022-12-01T05:41:22.064Z,49.80
2022-12-01T05:43:49.246Z,48.88
2022-12-01T05:46:16.511Z,51.20
2022-12-01T05:48:43.949Z,49.35
2022-12-01T05:51:12.994Z,51.85
2022-12-01T05:53:40.244Z,50.33
2022-12-01T05:56:08.380Z,49.42
2022-12-01T05:58:35.891Z,50.78
2022-12-01T06:01:03.747Z,49.33
2022-12-01T06:03:30.961Z,47.22
2022-12-01T06:05:58.361Z,48.28
2022-12-01T06:08:25.698Z,48.17
2022-12-01T06:10:52.913Z,48.45
2022-12-01T06:13:20.141Z,45.42
2022-12-01T06:15:55.419Z,47.45
2022-12-01T06:18:22.634Z,47.47
2022-12-01T06:20:49.858Z,47.80
2022-12-01T06:23:17.093Z,49.58
2022-12-01T06:25:44.403Z,49.25
2022-12-01T06:28:11.652Z,49.20
2022-12-01T06:30:38.899Z,49.90
2022-12-01T06:33:06.214Z,47.88
2022-12-01T06:35:33.406Z,48.60
2022-12-01T06:38:00.675Z,48.25
2022-12-01T06:40:28.098Z,48.95
2022-12-01T06:42:55.270Z,47.33
2022-12-01T06:45:22.494Z,48.95
2022-12-01T06:47:56.739Z,49.28
2022-12-01T06:50:24.374Z,48.15
2022-12-01T06:52:52.701Z,47.38
2022-12-01T06:55:20.003Z,47.28
2022-12-01T06:57:47.458Z,46.95
2022-12-01T07:00:15.457Z,49.15
2022-12-01T07:02:42.935Z,47.38
2022-12-01T07:05:11.013Z,46.15
2022-12-01T07:07:39.680Z,48.25
2022-12-01T07:10:07.745Z,48.47
2022-12-01T07:12:35.040Z,49.17
2022-12-01T07:15:02.993Z,48.17
2022-12-01T07:17:30.310Z,48.20
2022-12-01T07:19:57.870Z,49.25
2022-12-01T07:22:31.068Z,49.67
2022-12-01T07:24:59.741Z,48.25
2022-12-01T07:27:30.594Z,48.45
2022-12-01T07:29:57.863Z,50.55
2022-12-01T07:32:25.062Z,48.35
2022-12-01T07:34:52.293Z,49.45
2022-12-01T07:37:19.501Z,53.65
2022-12-01T07:39:46.951Z,50.92
2022-12-01T07:42:14.322Z,50.03
2022-12-01T07:44:41.541Z,48.78
2022-12-01T07:47:08.741Z,49.60
2022-12-01T07:49:35.924Z,49.67
2022-12-01T07:52:03.088Z,50.30
2022-12-01T07:54:30.366Z,48.38
2022-12-01T07:56:57.565Z,52.33
2022-12-01T07:59:24.799Z,51.00
2022-12-01T08:01:52.117Z,51.70
2022-12-01T08:04:19.733Z,52.42
2022-12-01T08:06:47.058Z,49.20
2022-12-01T08:09:14.252Z,52.00
2022-12-01T08:11:41.475Z,49.72
2022-12-01T08:14:08.975Z,51.00
2022-12-01T08:16:36.163Z,50.80
2022-12-01T08:19:03.440Z,48.60
2022-12-01T08:21:30.729Z,49.35
2022-12-01T08:23:58.537Z,48.75
2022-12-01T08:26:26.444Z,47.50
2022-12-01T08:28:54.117Z,48.83
2022-12-01T08:31:30.212Z,46.85
2022-12-01T08:33:57.919Z,50.28
2022-12-01T08:36:25.561Z,51.58
2022-12-01T08:38:54.356Z,50.97
2022-12-01T08:41:22.655Z,52.17
2022-12-01T08:43:57.998Z,51.65
2022-12-01T08:46:27.061Z,51.03
2022-12-01T08:48:57.354Z,51.08
2022-12-01T08:51:24.917Z,50.90
2022-12-01T08:53:52.144Z,50.05
2022-12-01T08:56:29.076Z,52.55
2022-12-01T08:58:56.708Z,49.22
2022-12-01T09:01:25.672Z,52.15
2022-12-01T09:04:05.660Z,51.90
2022-12-01T09:06:37.587Z,50.80
2022-12-01T09:09:05.091Z,50.60
2022-12-01T09:11:32.337Z,49.97
2022-12-01T09:14:00.675Z,50.78
2022-12-01T09:16:27.974Z,50.88
2022-12-01T09:18:55.553Z,52.00
2022-12-01T09:21:25.832Z,53.20
2022-12-01T09:23:53.594Z,53.05
2022-12-01T09:26:21.194Z,50.10
2022-12-01T09:28:50.419Z,51.58
2022-12-01T09:31:18.510Z,51.67
2022-12-01T09:33:46.166Z,53.30
2022-12-01T09:36:13.487Z,55.80
2022-12-01T09:38:41.214Z,53.65
2022-12-01T09:41:21.112Z,56.13
2022-12-01T09:43:57.926Z,53.40
2022-12-01T09:46:32.363Z,54.60
2022-12-01T09:49:02.855Z,55.80
2022-12-01T09:51:34.715Z,56.83
2022-12-01T09:54:02.227Z,57.42
2022-12-01T09:56:32.448Z,59.83
2022-12-01T09:59:02.631Z,63.72
2022-12-01T10:01:41.580Z,62.13
2022-12-01T10:04:20.958Z,60.78
2022-12-01T10:09:36.925Z,59.85
2022-12-01T10:12:17.176Z,62.90
2022-12-01T10:14:46.402Z,64.50
2022-12-01T10:17:25.524Z,63.03
2022-12-01T10:20:18.487Z,60.53
2022-12-01T10:23:19.430Z,62.45
2022-12-01T10:26:03.336Z,63.85
2022-12-01T10:28:50.317Z,62.72
2022-12-01T10:31:26.503Z,66.45
2022-12-01T10:34:02.665Z,62.85
2022-12-01T10:36:31.695Z,65.22
2022-12-01T10:38:59.794Z,67.90
2022-12-01T10:41:28.126Z,66.72
2022-12-01T10:44:00.731Z,68.93
2022-12-01T10:46:55.110Z,67.20
2022-12-01T10:49:39.425Z,65.32
2022-12-01T10:52:07.221Z,66.10
2022-12-01T10:54:37.674Z,65.40
2022-12-01T10:57:07.132Z,67.63
2022-12-01T11:02:04.173Z,62.42
2022-12-01T11:04:46.418Z,63.17
2022-12-01T11:07:25.747Z,61.47
2022-12-01T11:12:56.827Z,61.17
2022-12-01T11:15:30.598Z,61.42
2022-12-01T11:18:06.210Z,63.35
2022-12-01T11:20:39.461Z,63.40
2022-12-01T11:23:20.505Z,62.75
2022-12-01T11:26:10.707Z,61.67
2022-12-01T11:28:51.432Z,58.33
2022-12-01T11:31:20.296Z,64.47
2022-12-01T11:33:51.719Z,61.00
2022-12-01T11:36:33.892Z,62.63
2022-12-01T11:39:01.979Z,62.17
2022-12-01T11:41:35.156Z,64.13
2022-12-01T11:44:06.365Z,65.38
2022-12-01T11:46:50.082Z,63.63
2022-12-01T11:49:26.947Z,61.70
2022-12-01T11:51:54.169Z,62.63
2022-12-01T11:54:24.606Z,63.30
2022-12-01T11:57:25.497Z,64.20
2022-12-01T11:59:40.383Z,64.65
2022-12-01T12:02:40.576Z,64.32
2022-12-01T12:05:32.042Z,61.25
2022-12-01T12:08:39.205Z,62.78
2022-12-01T12:11:15.889Z,63.00
2022-12-01T12:14:09.048Z,62.10
2022-12-01T12:16:52.657Z,60.47
2022-12-01T12:20:07.128Z,61.20
2022-12-01T12:23:14.281Z,61.65
2022-12-01T12:25:44.376Z,63.28
2022-12-01T12:28:24.082Z,63.92
2022-12-01T12:31:23.136Z,63.75
2022-12-01T12:33:53.172Z,62.13
2022-12-01T12:36:39.179Z,65.22
2022-12-01T12:39:24.623Z,62.30
2022-12-01T12:41:54.775Z,60.00
2022-12-01T12:44:51.083Z,62.03
2022-12-01T12:47:55.930Z,62.00
2022-12-01T12:50:39.139Z,61.83
2022-12-01T12:53:18.270Z,61.15
2022-12-01T12:55:51.589Z,60.72
2022-12-01T12:58:31.473Z,60.97
2022-12-01T13:01:01.836Z,61.03
2022-12-01T13:03:57.241Z,62.40
2022-12-01T13:06:47.113Z,61.88
2022-12-01T13:09:22.601Z,59.47
2022-12-01T13:12:01.797Z,58.30
2022-12-01T13:14:33.536Z,60.25
2022-12-01T13:17:20.202Z,60.17
2022-12-01T13:19:48.638Z,59.28
2022-12-01T13:22:18.350Z,61.20
2022-12-01T13:24:48.906Z,54.33
2022-12-01T13:27:21.439Z,59.28
2022-12-01T13:29:51.151Z,59.28
2022-12-01T13:32:43.334Z,57.03
2022-12-01T13:35:31.125Z,55.88
2022-12-01T13:38:31.239Z,54.45
2022-12-01T13:41:18.251Z,55.90
2022-12-01T13:44:10.140Z,55.40
2022-12-01T13:46:43.664Z,56.55
2022-12-01T13:49:39.153Z,54.15
2022-12-01T13:52:29.308Z,52.58
2022-12-01T13:55:08.909Z,53.22
2022-12-01T13:57:37.480Z,51.05
2022-12-01T14:00:09.222Z,51.57
2022-12-01T14:02:41.012Z,48.72
2022-12-01T14:05:39.880Z,50.00
2022-12-01T14:08:23.287Z,50.72
2022-12-01T14:11:26.036Z,49.75
2022-12-01T14:14:13.268Z,49.75
2022-12-01T14:16:50.583Z,50.10
2022-12-01T14:19:52.230Z,46.78
2022-12-01T14:22:46.014Z,45.35
2022-12-01T14:25:22.695Z,48.05
2022-12-01T14:27:52.600Z,46.15
2022-12-01T14:30:43.537Z,46.67
2022-12-01T14:33:39.729Z,46.75
2022-12-01T14:36:31.865Z,45.00
2022-12-01T14:39:01.619Z,44.35
2022-12-01T14:41:39.460Z,46.17
2022-12-01T14:44:31.992Z,45.25
2022-12-01T14:47:11.106Z,45.03
2022-12-01T14:49:48.889Z,45.55
2022-12-01T14:52:46.570Z,47.65
2022-12-01T14:55:25.691Z,46.58
2022-12-01T14:58:01.396Z,47.58
2022-12-01T15:00:30.856Z,48.08
2022-12-01T15:03:01.629Z,47.50
2022-12-01T15:05:37.510Z,47.13
2022-12-01T15:08:45.704Z,46.83
2022-12-01T15:11:25.333Z,47.70
2022-12-01T15:13:54.608Z,48.05
2022-12-01T15:16:24.254Z,47.20
2022-12-01T15:18:52.125Z,48.40
2022-12-01T15:21:32.913Z,47.45
2022-12-01T15:24:21.557Z,47.55
2022-12-01T15:26:51.554Z,47.95
2022-12-01T15:29:28.202Z,47.65
2022-12-01T15:32:03.124Z,50.10
2022-12-01T15:34:37.316Z,48.88
2022-12-01T15:37:08.471Z,47.88
2022-12-01T15:39:50.076Z,47.00
2022-12-01T15:42:26.298Z,48.67
2022-12-01T15:45:16.228Z,47.58
2022-12-01T15:47:47.527Z,47.15
2022-12-01T15:50:42.667Z,46.95
2022-12-01T15:53:32.768Z,48.50
2022-12-01T15:56:03.083Z,47.95
2022-12-01T15:58:34.833Z,48.17
2022-12-01T16:01:11.954Z,48.58
2022-12-01T16:04:04.001Z,49.00
2022-12-01T16:06:38.234Z,48.95
2022-12-01T16:09:32.902Z,49.85
2022-12-01T16:12:05.562Z,50.30
2022-12-01T16:14:33.071Z,49.25
2022-12-01T16:17:00.990Z,47.83
2022-12-01T16:19:31.441Z,49.38
2022-12-01T16:22:11.218Z,48.50
2022-12-01T16:24:43.580Z,51.03
2022-12-01T16:27:25.946Z,49.65
2022-12-01T16:30:00.513Z,49.47
2022-12-01T16:32:41.391Z,47.08
2022-12-01T16:35:30.589Z,47.92
2022-12-01T16:37:59.029Z,50.75
2022-12-01T16:40:26.898Z,51.13
2022-12-01T16:42:56.368Z,53.85
2022-12-01T16:45:26.800Z,50.22
2022-12-01T16:47:54.364Z,50.28
2022-12-01T16:50:23.967Z,52.10
2022-12-01T16:52:52.516Z,51.85
2022-12-01T16:55:39.156Z,48.33
2022-12-01T16:58:08.378Z,48.30
2022-12-01T17:00:39.335Z,46.72
2022-12-01T17:03:07.453Z,47.72
2022-12-01T17:05:36.054Z,48.38
2022-12-01T17:08:03.940Z,48.53
2022-12-01T17:10:44.447Z,45.85
2022-12-01T17:13:12.575Z,49.35
2022-12-01T17:15:44.341Z,49.15
2022-12-01T17:18:12.366Z,47.25
2022-12-01T17:20:39.886Z,47.38
2022-12-01T17:23:07.720Z,47.45
2022-12-01T17:25:35.873Z,47.28
2022-12-01T17:28:05.909Z,47.83
2022-12-01T17:30:33.393Z,46.53
2022-12-01T17:33:01.106Z,44.30
2022-12-01T17:35:28.419Z,47.30
2022-12-01T17:37:55.748Z,48.35
2022-12-01T17:40:23.323Z,48.28
2022-12-01T17:42:51.210Z,47.70
2022-12-01T17:45:25.079Z,59.10
2022-12-01T17:47:52.384Z,51.08
2022-12-01T17:50:20.229Z,49.92
2022-12-01T17:52:51.669Z,48.50
2022-12-01T17:55:19.713Z,48.85
2022-12-01T17:57:47.133Z,48.10
2022-12-01T18:00:15.136Z,48.42
2022-12-01T18:02:42.441Z,49.20
2022-12-01T18:05:10.081Z,50.55
2022-12-01T18:07:37.455Z,52.50
2022-12-01T18:10:06.480Z,50.05
2022-12-01T18:12:33.868Z,49.88
2022-12-01T18:15:01.200Z,50.55
2022-12-01T18:17:28.424Z,48.42
2022-12-01T18:19:55.682Z,49.75
2022-12-01T18:22:23.083Z,48.83
2022-12-01T18:24:50.480Z,50.78
2022-12-01T18:27:18.092Z,51.33
2022-12-01T18:29:45.482Z,51.95
2022-12-01T18:32:12.736Z,51.40
2022-12-01T18:34:40.026Z,53.22
2022-12-01T18:37:07.393Z,52.90
2022-12-01T18:39:34.623Z,54.60
2022-12-01T18:42:02.640Z,53.92
2022-12-01T18:44:30.174Z,57.00
2022-12-01T18:46:59.022Z,50.97
2022-12-01T18:49:26.676Z,53.50
2022-12-01T18:51:56.420Z,53.08
2022-12-01T18:54:23.851Z,51.90
2022-12-01T18:56:55.279Z,52.30
2022-12-01T18:59:22.548Z,49.17
2022-12-01T19:01:49.983Z,52.05
2022-12-01T19:04:25.700Z,51.35
2022-12-01T19:06:53.039Z,52.75
2022-12-01T19:09:21.873Z,51.05
2022-12-01T19:11:49.177Z,51.17
2022-12-01T19:14:18.344Z,50.42
2022-12-01T19:16:46.336Z,52.72
2022-12-01T19:19:13.683Z,53.22
2022-12-01T19:21:41.027Z,53.05
2022-12-01T19:24:08.756Z,53.15
2022-12-01T19:26:42.354Z,53.92
2022-12-01T19:29:09.660Z,51.90
2022-12-01T19:31:37.214Z,54.03
2022-12-01T19:34:07.579Z,53.03
2022-12-01T19:36:35.238Z,53.45
2022-12-01T19:39:06.072Z,54.10
2022-12-01T19:41:35.050Z,51.28
2022-12-01T19:44:02.450Z,52.45
2022-12-01T19:46:32.647Z,51.97
2022-12-01T19:49:01.740Z,52.10
2022-12-01T19:51:37.279Z,53.15
2022-12-01T19:54:06.108Z,54.10
2022-12-01T19:56:33.415Z,53.55
2022-12-01T19:59:07.761Z,54.42
2022-12-01T20:01:37.645Z,54.42
2022-12-01T20:04:05.631Z,55.15
2022-12-01T20:06:35.109Z,57.70
2022-12-01T20:09:04.948Z,55.00
2022-12-01T20:11:33.032Z,57.10
2022-12-01T20:14:04.227Z,57.53
2022-12-01T20:16:32.623Z,56.53
2022-12-01T20:19:05.454Z,56.07
2022-12-01T20:21:42.532Z,56.92
2022-12-01T20:24:14.215Z,55.60
2022-12-01T20:26:46.109Z,54.15
2022-12-01T20:29:20.801Z,54.75
2022-12-01T20:31:52.820Z,54.42
2022-12-01T20:34:23.343Z,51.72
2022-12-01T20:36:50.621Z,53.35
2022-12-01T20:39:18.853Z,53.45
2022-12-01T20:41:46.850Z,51.47
2022-12-01T20:44:15.727Z,52.72
2022-12-01T20:46:45.553Z,54.72
2022-12-01T20:49:14.699Z,53.80
2022-12-01T20:51:45.482Z,52.15
2022-12-01T20:54:31.212Z,54.05
2022-12-01T20:56:58.848Z,50.92
2022-12-01T20:59:27.969Z,52.20
2022-12-01T21:01:55.744Z,51.58
2022-12-01T21:04:23.871Z,53.92
2022-12-01T21:06:57.105Z,52.63
2022-12-01T21:09:25.162Z,52.17
2022-12-01T21:12:14.165Z,52.30
2022-12-01T21:15:08.386Z,51.78
2022-12-01T21:17:37.205Z,50.15
2022-12-01T21:20:11.787Z,52.03
2022-12-01T21:22:40.206Z,52.30
2022-12-01T21:25:25.991Z,53.27
2022-12-01T21:27:58.427Z,50.50
2022-12-01T21:30:26.433Z,50.97
2022-12-01T21:32:54.803Z,52.85
2022-12-01T21:35:25.935Z,51.17
2022-12-01T21:38:02.245Z,53.70
2022-12-01T21:40:32.624Z,52.05
2022-12-01T21:43:09.904Z,51.08
2022-12-01T21:45:37.197Z,50.80
2022-12-01T21:48:16.101Z,50.53
2022-12-01T21:50:43.715Z,52.53
2022-12-01T21:53:16.153Z,51.42
2022-12-01T21:55:47.694Z,51.40
2022-12-01T21:58:29.772Z,51.55
2022-12-01T22:01:00.386Z,51.08
2022-12-01T22:03:29.666Z,48.28
2022-12-01T22:06:28.266Z,48.85
2022-12-01T22:08:52.428Z,50.45
2022-12-01T22:11:28.269Z,48.85
2022-12-01T22:14:19.089Z,50.38
2022-12-01T22:16:54.378Z,49.92
2022-12-01T22:19:34.321Z,51.03
2022-12-01T22:22:32.698Z,50.67
2022-12-01T22:25:26.512Z,49.63
2022-12-01T22:27:54.486Z,51.58
2022-12-01T22:30:23.480Z,51.65
2022-12-01T22:33:06.262Z,54.33
2022-12-01T22:35:50.241Z,52.95
2022-12-01T22:38:35.107Z,50.13
2022-12-01T22:44:01.603Z,53.55
2022-12-01T22:46:35.236Z,51.22
2022-12-01T22:49:06.790Z,50.63
2022-12-01T22:51:38.056Z,52.80
2022-12-01T22:54:31.062Z,52.67
2022-12-01T22:57:05.070Z,49.78
2022-12-01T22:59:35.549Z,50.47
2022-12-01T23:02:20.794Z,49.83
2022-12-01T23:04:52.590Z,50.58
2022-12-01T23:07:41.824Z,51.00
2022-12-01T23:10:16.981Z,51.40
2022-12-01T23:12:46.249Z,51.40
2022-12-01T23:15:34.667Z,50.63
2022-12-01T23:18:12.347Z,50.77
2022-12-01T23:20:42.057Z,50.75
2022-12-01T23:23:14.408Z,50.67
2022-12-01T23:25:42.374Z,52.45
2022-12-01T23:28:11.859Z,51.60
2022-12-01T23:30:41.167Z,52.80
2022-12-01T23:33:21.908Z,51.63
2022-12-01T23:35:57.867Z,53.08
2022-12-01T23:38:32.528Z,51.97
2022-12-01T23:41:01.896Z,50.55
2022-12-01T23:46:10.742Z,50.40
2022-12-01T23:48:58.608Z,50.83
2022-12-01T23:51:30.864Z,50.05
2022-12-01T23:54:00.690Z,50.90
2022-12-01T23:56:30.702Z,50.33
2022-12-01T23:58:59.040Z,50.67
